createdAt,value
2018-05-12T00:04:19.797Z,96.10
2018-05-12T00:09:23.508Z,97.20
2018-05-12T00:14:27.336Z,97.70
2018-05-12T00:19:31.482Z,98.70
2018-05-12T00:24:34.732Z,98.70
2018-05-12T00:29:38.036Z,98.80
2018-05-12T00:34:41.368Z,99.50
2018-05-12T00:39:45.098Z,99.00
2018-05-12T00:44:51.889Z,99.10
2018-05-12T00:49:56.511Z,99.30
2018-05-12T00:54:59.744Z,99.30
2018-05-12T01:00:02.979Z,99.60
2018-05-12T01:05:06.396Z,99.60
2018-05-12T01:10:09.641Z,99.60
2018-05-12T01:15:12.886Z,99.60
2018-05-12T01:20:20.733Z,99.60
2018-05-12T01:25:23.959Z,99.60
2018-05-12T01:30:27.212Z,99.60
2018-05-12T01:35:30.443Z,99.60
2018-05-12T01:40:33.808Z,99.60
2018-05-12T01:45:37.200Z,99.60
2018-05-12T01:50:40.837Z,99.60
2018-05-12T01:55:44.100Z,99.60
2018-05-12T02:00:48.528Z,99.60
2018-05-12T02:05:51.807Z,99.60
2018-05-12T02:10:55.044Z,99.60
2018-05-12T02:15:58.390Z,99.60
2018-05-12T02:21:02.947Z,99.60
2018-05-12T02:26:06.217Z,99.60
2018-05-12T02:31:09.587Z,99.60
2018-05-12T02:36:12.810Z,99.60
2018-05-12T02:41:22.504Z,99.60
2018-05-12T02:46:26.177Z,99.60
2018-05-12T02:51:32.048Z,99.60
2018-05-12T02:56:35.301Z,99.60
2018-05-12T03:01:40.104Z,99.60
2018-05-12T03:06:43.516Z,99.60
2018-05-12T03:11:46.839Z,99.60
2018-05-12T03:16:50.072Z,99.60
2018-05-12T03:21:53.366Z,99.60
2018-05-12T03:26:57.009Z,99.60
2018-05-12T03:32:00.290Z,99.60
2018-05-12T03:37:03.931Z,99.60
2018-05-12T03:42:07.197Z,99.60
2018-05-12T03:47:10.836Z,99.60
2018-05-12T03:52:14.056Z,99.60
2018-05-12T03:57:17.321Z,99.60
2018-05-12T04:02:20.543Z,99.60
2018-05-12T04:07:36.136Z,99.60
2018-05-12T04:12:41.570Z,99.60
2018-05-12T04:17:44.803Z,99.60
2018-05-12T04:22:48.436Z,99.60
2018-05-12T04:27:51.685Z,99.60
2018-05-12T04:32:54.956Z,99.60
2018-05-12T04:37:58.235Z,99.60
2018-05-12T04:43:01.856Z,99.60
2018-05-12T04:48:05.479Z,99.60
2018-05-12T04:53:09.107Z,99.60
2018-05-12T04:58:12.500Z,99.60
2018-05-12T05:03:15.730Z,99.60
2018-05-12T05:08:19.038Z,99.60
2018-05-12T05:13:22.224Z,99.60
2018-05-12T05:18:25.580Z,99.00
2018-05-12T05:23:28.819Z,98.60
2018-05-12T05:28:32.461Z,98.50
2018-05-12T05:33:35.682Z,98.50
2018-05-12T05:38:38.915Z,97.50
2018-05-12T05:43:42.190Z,97.40
2018-05-12T05:48:45.483Z,96.90
2018-05-12T05:53:48.731Z,96.30
2018-05-12T05:58:52.042Z,95.30
2018-05-12T06:03:55.491Z,95.20
2018-05-12T06:08:59.206Z,95.20
2018-05-12T06:14:02.910Z,95.50
2018-05-12T06:19:07.226Z,94.80
2018-05-12T06:24:10.461Z,94.80
2018-05-12T06:29:14.484Z,92.70
2018-05-12T06:34:18.132Z,91.60
2018-05-12T06:39:21.822Z,91.60
2018-05-12T06:44:25.086Z,91.90
2018-05-12T06:49:28.363Z,91.20
2018-05-12T06:54:31.592Z,90.40
2018-05-12T06:59:34.855Z,90.50
2018-05-12T07:04:38.087Z,92.00
2018-05-12T07:09:41.328Z,90.00
2018-05-12T07:14:44.574Z,89.50
2018-05-12T07:19:47.810Z,89.20
2018-05-12T07:24:51.073Z,89.60
2018-05-12T07:29:54.715Z,89.20
2018-05-12T07:34:57.965Z,89.10
2018-05-12T07:40:01.215Z,89.10
2018-05-12T07:45:04.671Z,88.60
2018-05-12T07:50:07.887Z,88.10
2018-05-12T07:55:11.751Z,87.70
2018-05-12T08:00:14.994Z,87.90
2018-05-12T08:05:18.545Z,86.80
2018-05-12T08:10:22.754Z,86.20
2018-05-12T08:15:25.993Z,85.70
2018-05-12T08:20:29.226Z,85.10
2018-05-12T08:25:32.493Z,83.90
2018-05-12T08:30:36.133Z,84.50
2018-05-12T08:35:39.384Z,84.50
2018-05-12T08:40:42.617Z,84.30
2018-05-12T08:45:46.055Z,83.80
2018-05-12T08:50:49.289Z,84.20
2018-05-12T08:55:52.827Z,82.50
2018-05-12T09:00:56.067Z,82.80
2018-05-12T09:05:59.749Z,82.30
2018-05-12T09:11:03.184Z,82.30
2018-05-12T09:16:06.833Z,81.10
2018-05-12T09:21:10.072Z,81.10
2018-05-12T09:26:13.306Z,81.50
2018-05-12T09:31:16.539Z,80.00
2018-05-12T09:36:19.769Z,79.70
2018-05-12T09:41:23.007Z,80.30
2018-05-12T09:46:26.290Z,79.20
2018-05-12T09:51:29.878Z,78.90
2018-05-12T09:56:33.136Z,79.40
2018-05-12T10:01:36.898Z,79.00
2018-05-12T10:06:41.722Z,79.20
2018-05-12T10:11:45.192Z,78.40
2018-05-12T10:16:48.644Z,77.90
2018-05-12T10:21:52.058Z,76.60
2018-05-12T10:26:55.361Z,76.80
2018-05-12T10:31:58.986Z,74.70
2018-05-12T10:37:02.785Z,70.40
2018-05-12T10:42:06.386Z,70.40
2018-05-12T10:47:09.631Z,70.60
2018-05-12T10:52:12.859Z,70.00
2018-05-12T10:57:17.527Z,68.10
2018-05-12T11:02:20.742Z,66.10
2018-05-12T11:07:23.969Z,65.60
2018-05-12T11:12:27.694Z,67.20
2018-05-12T11:17:31.398Z,65.10
2018-05-12T11:22:35.196Z,65.10
2018-05-12T11:27:38.422Z,65.30
2018-05-12T11:32:42.151Z,64.60
2018-05-12T11:37:45.945Z,64.90
2018-05-12T11:42:49.961Z,64.90
2018-05-12T11:47:54.255Z,64.50
2018-05-12T11:52:57.507Z,62.70
2018-05-12T11:58:01.144Z,59.40
2018-05-12T12:03:04.774Z,58.20
2018-05-12T12:08:08.017Z,58.20
2018-05-12T12:13:11.241Z,56.30
2018-05-12T12:18:14.464Z,54.70
2018-05-12T12:23:18.036Z,54.70
2018-05-12T12:28:21.247Z,54.50
2018-05-12T12:33:24.510Z,53.80
2018-05-12T12:38:27.907Z,53.00
2018-05-12T12:43:31.879Z,56.10
2018-05-12T12:48:35.100Z,56.00
2018-05-12T12:53:38.461Z,54.40
2018-05-12T12:58:42.108Z,51.60
2018-05-12T13:03:45.324Z,51.60
2018-05-12T13:08:49.801Z,50.20
2018-05-12T13:13:53.012Z,51.00
2018-05-12T13:18:57.013Z,49.50
2018-05-12T13:24:00.637Z,49.20
2018-05-12T13:29:03.888Z,49.10
2018-05-12T13:34:07.162Z,47.80
2018-05-12T13:39:10.783Z,49.80
2018-05-12T13:44:14.403Z,51.00
2018-05-12T13:49:18.010Z,52.30
2018-05-12T13:54:21.616Z,53.70
2018-05-12T13:59:24.860Z,53.70
2018-05-12T14:04:28.087Z,53.70
2018-05-12T14:09:31.317Z,52.90
2018-05-12T14:14:34.844Z,51.20
2018-05-12T14:19:38.100Z,50.00
2018-05-12T14:24:41.332Z,49.50
2018-05-12T14:29:44.552Z,49.70
2018-05-12T14:34:47.768Z,49.00
2018-05-12T14:39:50.982Z,49.00
2018-05-12T14:44:54.639Z,48.50
2018-05-12T14:49:58.075Z,48.50
2018-05-12T14:55:01.407Z,47.10
2018-05-12T15:00:04.716Z,47.80
2018-05-12T15:05:10.320Z,48.10
2018-05-12T15:10:14.327Z,46.80
2018-05-12T15:15:18.052Z,47.60
2018-05-12T15:20:21.277Z,47.50
2018-05-12T15:25:24.727Z,50.60
2018-05-12T15:30:27.941Z,52.80
2018-05-12T15:35:31.177Z,55.40
2018-05-12T15:40:34.457Z,55.90
2018-05-12T15:45:38.092Z,55.30
2018-05-12T15:50:41.376Z,55.30
2018-05-12T15:55:45.011Z,51.00
2018-05-12T16:00:48.256Z,51.00
2018-05-12T16:05:52.303Z,49.50
2018-05-12T16:10:55.843Z,51.40
2018-05-12T16:15:59.177Z,54.10
2018-05-12T16:21:02.454Z,55.40
2018-05-12T16:26:06.067Z,57.70
2018-05-12T16:31:09.855Z,59.10
2018-05-12T16:36:13.074Z,59.10
2018-05-12T16:41:16.295Z,59.50
2018-05-12T16:46:19.910Z,59.40
2018-05-12T16:51:24.236Z,60.10
2018-05-12T16:56:27.452Z,60.10
2018-05-12T17:01:31.157Z,60.10
2018-05-12T17:06:34.472Z,60.10
2018-05-12T17:11:37.637Z,56.80
2018-05-12T17:16:41.075Z,55.20
2018-05-12T17:21:44.801Z,56.00
2018-05-12T17:26:48.453Z,58.00
2018-05-12T17:31:51.981Z,58.00
2018-05-12T17:36:55.207Z,60.30
2018-05-12T17:41:58.448Z,61.10
2018-05-12T17:47:02.071Z,68.40
2018-05-12T17:52:05.689Z,68.90
2018-05-12T17:57:08.925Z,68.90
2018-05-12T18:02:12.177Z,70.00
2018-05-12T18:07:15.803Z,69.90
2018-05-12T18:12:19.421Z,70.50
2018-05-12T18:17:23.821Z,72.30
2018-05-12T18:22:27.016Z,72.30
2018-05-12T18:27:30.263Z,73.50
2018-05-12T18:32:33.880Z,74.40
2018-05-12T18:37:37.495Z,74.10
2018-05-12T18:42:41.124Z,74.80
2018-05-12T18:47:44.339Z,74.80
2018-05-12T18:52:47.555Z,75.20
2018-05-12T18:57:50.784Z,76.00
2018-05-12T19:02:55.046Z,76.50
2018-05-12T19:07:58.292Z,76.40
2018-05-12T19:13:01.964Z,76.20
2018-05-12T19:18:05.597Z,75.20
2018-05-12T19:23:09.223Z,75.20
2018-05-12T19:28:12.460Z,75.20
2018-05-12T19:33:15.680Z,75.20
2018-05-12T19:38:18.912Z,74.90
2018-05-12T19:43:22.534Z,72.90
2018-05-12T19:48:26.143Z,72.40
2018-05-12T19:53:29.361Z,72.40
2018-05-12T19:58:33.064Z,71.90
2018-05-12T20:03:36.307Z,71.90
2018-05-12T20:08:39.535Z,71.90
2018-05-12T20:13:42.761Z,71.90
2018-05-12T20:18:45.994Z,72.10
2018-05-12T20:23:49.616Z,72.00
2018-05-12T20:28:53.230Z,72.10
2018-05-12T20:33:56.838Z,72.50
2018-05-12T20:39:00.471Z,72.50
2018-05-12T20:44:03.727Z,72.60
2018-05-12T20:49:06.968Z,72.80
2018-05-12T20:54:10.580Z,73.20
2018-05-12T20:59:14.215Z,73.30
2018-05-12T21:04:17.721Z,73.30
2018-05-12T21:09:21.945Z,73.70
2018-05-12T21:14:25.696Z,73.60
2018-05-12T21:19:28.924Z,73.60
2018-05-12T21:24:32.259Z,73.50
2018-05-12T21:29:35.565Z,74.30
2018-05-12T21:34:38.774Z,74.40
2018-05-12T21:39:42.088Z,75.60
2018-05-12T21:44:45.900Z,77.40
2018-05-12T21:49:49.302Z,77.40
2018-05-12T21:54:52.557Z,77.70
2018-05-12T21:59:55.839Z,77.70
2018-05-12T22:04:59.446Z,77.60
2018-05-12T22:10:03.077Z,78.20
2018-05-12T22:15:07.031Z,78.20
2018-05-12T22:20:10.382Z,79.10
2018-05-12T22:25:13.602Z,80.10
2018-05-12T22:30:17.212Z,81.60
2018-05-12T22:35:20.906Z,81.80
2018-05-12T22:40:24.971Z,81.90
2018-05-12T22:45:28.189Z,81.80
2018-05-12T22:50:32.075Z,81.50
2018-05-12T22:55:35.333Z,81.40
2018-05-12T23:00:38.559Z,81.00
2018-05-12T23:05:41.788Z,80.90
2018-05-12T23:10:45.107Z,81.30
2018-05-12T23:15:48.739Z,83.00
2018-05-12T23:20:51.981Z,83.00
2018-05-12T23:25:56.184Z,89.70
2018-05-12T23:30:59.527Z,90.30
2018-05-12T23:36:03.434Z,88.00
2018-05-12T23:41:06.669Z,87.50
2018-05-12T23:46:11.003Z,85.60
2018-05-12T23:51:14.517Z,85.40
2018-05-12T23:56:17.707Z,85.70
